Time;durP1;ratioP1;P1;durP2;ratioP2;P2;SDS_P1;SDS_P2;PMS_P1;PMS_P2;Temp;Humidity;BMP_temperature;BMP_pressure;BME280_temperature;BME280_humidity;BME280_pressure;Samples;Min_cycle;Max_cycle;Signal;HPM_P1;HPM_P2
2021/09/24 00:02:07;;;;;;;10.20;7.10;;;11.70;99.90;;;;;;5130580;27;20444;-67
2021/09/24 00:04:36;;;;;;;10.83;8.63;;;11.70;99.90;;;;;;5130658;27;20448;-67
2021/09/24 00:07:04;;;;;;;10.03;7.27;;;11.60;99.90;;;;;;5131163;27;20529;-67
2021/09/24 00:09:31;;;;;;;9.37;8.07;;;11.60;99.90;;;;;;5131073;27;20447;-66
2021/09/24 00:11:58;;;;;;;10.97;7.00;;;11.50;99.90;;;;;;5130537;27;21229;-67
2021/09/24 00:14:25;;;;;;;9.90;6.50;;;11.50;99.90;;;;;;5130626;27;20444;-67
2021/09/24 00:16:52;;;;;;;8.90;6.87;;;11.50;99.90;;;;;;5130856;27;20514;-67
2021/09/24 00:19:19;;;;;;;10.00;7.83;;;11.50;99.90;;;;;;5131254;27;20454;-67
2021/09/24 00:21:47;;;;;;;12.13;7.97;;;11.50;99.90;;;;;;5129924;27;20531;-67
2021/09/24 00:24:14;;;;;;;8.93;8.00;;;11.50;99.90;;;;;;5129262;27;20452;-67
2021/09/24 00:26:41;;;;;;;8.93;7.90;;;11.60;99.90;;;;;;5130920;27;20826;-67
2021/09/24 00:29:08;;;;;;;9.33;7.07;;;11.70;99.90;;;;;;5131009;27;20878;-68
2021/09/24 00:31:35;;;;;;;10.90;8.73;;;11.80;99.90;;;;;;5129878;27;20450;-67
2021/09/24 00:34:02;;;;;;;9.30;7.30;;;11.80;99.90;;;;;;5130677;27;20444;-67
2021/09/24 00:36:28;;;;;;;9.63;8.27;;;11.80;99.90;;;;;;5130991;27;20488;-67
2021/09/24 00:38:57;;;;;;;14.43;8.53;;;11.90;99.90;;;;;;5131266;27;20480;-67
2021/09/24 00:41:24;;;;;;;9.33;7.43;;;11.80;99.90;;;;;;5130371;27;21213;-67
2021/09/24 00:43:51;;;;;;;10.67;7.60;;;11.80;99.90;;;;;;5130623;27;20448;-67
2021/09/24 00:46:18;;;;;;;11.40;8.23;;;11.80;99.90;;;;;;5130861;27;20468;-68
2021/09/24 00:48:46;;;;;;;10.03;8.10;;;11.80;99.90;;;;;;5131294;27;20440;-67
2021/09/24 00:51:13;;;;;;;8.87;7.40;;;11.70;99.90;;;;;;5131177;27;20440;-68
2021/09/24 00:53:40;;;;;;;8.90;7.17;;;11.70;99.90;;;;;;5129709;27;20451;-68
2021/09/24 00:56:09;;;;;;;15.50;9.00;;;11.70;99.90;;;;;;5130629;27;20480;-67
2021/09/24 00:58:36;;;;;;;8.67;7.60;;;11.70;99.90;;;;;;5130506;27;20495;-67
2021/09/24 01:01:03;;;;;;;11.70;8.20;;;11.70;99.90;;;;;;5130902;27;20440;-68
2021/09/24 01:03:30;;;;;;;17.53;8.03;;;11.60;99.90;;;;;;5129689;27;20525;-67
2021/09/24 01:05:57;;;;;;;9.43;7.50;;;11.60;99.90;;;;;;5130735;27;20555;-68
2021/09/24 01:08:26;;;;;;;11.27;8.30;;;11.40;99.90;;;;;;5130421;27;20452;-68
2021/09/24 01:10:53;;;;;;;10.90;7.50;;;11.40;99.90;;;;;;5130676;27;20444;-67
2021/09/24 01:13:21;;;;;;;9.87;8.77;;;11.20;99.90;;;;;;5129144;27;20444;-69
2021/09/24 01:15:48;;;;;;;10.20;8.60;;;11.20;99.90;;;;;;5130109;27;20476;-67
2021/09/24 01:18:15;;;;;;;9.37;7.37;;;11.20;99.90;;;;;;5133138;27;20448;-67
2021/09/24 01:20:42;;;;;;;10.57;7.90;;;11.30;99.90;;;;;;5134265;27;20436;-67
2021/09/24 01:23:10;;;;;;;12.63;8.13;;;11.30;99.90;;;;;;5133012;27;20815;-67
2021/09/24 01:25:37;;;;;;;10.03;7.70;;;11.40;99.90;;;;;;5134168;27;20441;-67
2021/09/24 01:28:05;;;;;;;12.57;8.23;;;11.60;99.90;;;;;;5134201;27;20452;-68
2021/09/24 01:30:32;;;;;;;11.30;8.40;;;11.80;99.90;;;;;;5134007;27;20444;-68
2021/09/24 01:32:59;;;;;;;12.60;9.17;;;12.00;99.90;;;;;;5133094;27;20444;-68
2021/09/24 01:35:25;;;;;;;11.30;9.17;;;12.10;99.90;;;;;;5133788;27;20822;-68
2021/09/24 01:37:52;;;;;;;13.23;8.77;;;12.20;99.90;;;;;;5134184;27;20460;-68
2021/09/24 01:40:21;;;;;;;11.20;8.03;;;12.30;99.90;;;;;;5133836;27;20832;-68
2021/09/24 01:42:52;;;;;;;13.00;10.10;;;12.30;99.90;;;;;;5132740;27;20449;-68
2021/09/24 01:45:19;;;;;;;13.23;8.90;;;12.40;99.90;;;;;;5134331;27;20440;-68
2021/09/24 01:47:46;;;;;;;12.13;9.97;;;12.40;99.90;;;;;;5133786;27;20471;-68
2021/09/24 01:50:13;;;;;;;14.70;9.13;;;12.40;99.90;;;;;;5134054;27;20535;-68
2021/09/24 01:52:41;;;;;;;12.50;9.50;;;12.40;99.90;;;;;;5132432;27;20448;-68
2021/09/24 01:55:09;;;;;;;12.60;9.77;;;12.40;99.90;;;;;;5133406;27;20543;-68
2021/09/24 01:57:38;;;;;;;13.07;8.80;;;12.40;99.90;;;;;;5133195;27;20567;-68
2021/09/24 02:00:06;;;;;;;12.33;8.93;;;12.40;99.90;;;;;;5133709;27;20448;-69
2021/09/24 02:02:33;;;;;;;11.77;8.90;;;12.40;99.90;;;;;;5132482;27;20558;-68
2021/09/24 02:05:00;;;;;;;12.47;9.80;;;12.30;99.90;;;;;;5133176;27;20440;-68
2021/09/24 02:07:27;;;;;;;9.03;7.50;;;12.30;99.90;;;;;;5133173;27;20551;-68
2021/09/24 02:09:54;;;;;;;11.40;9.40;;;12.30;99.90;;;;;;5133524;27;20467;-68
2021/09/24 02:12:21;;;;;;;15.30;10.40;;;12.40;99.90;;;;;;5132622;27;20882;-68
2021/09/24 02:14:49;;;;;;;12.23;9.57;;;12.40;99.90;;;;;;5132662;27;20827;-68
2021/09/24 02:17:16;;;;;;;12.03;8.87;;;12.40;99.90;;;;;;5133240;27;20487;-68
2021/09/24 02:19:43;;;;;;;13.10;9.10;;;12.40;99.90;;;;;;5133172;27;20454;-68
2021/09/24 02:22:10;;;;;;;11.17;9.37;;;12.40;99.90;;;;;;5132542;27;20444;-68
2021/09/24 02:24:36;;;;;;;12.07;9.10;;;12.40;99.90;;;;;;5132694;27;21033;-68
2021/09/24 02:27:04;;;;;;;13.20;10.53;;;12.40;99.90;;;;;;5133116;27;20459;-68
2021/09/24 02:29:30;;;;;;;13.33;9.80;;;12.40;99.90;;;;;;5131994;27;20444;-69
2021/09/24 02:31:58;;;;;;;11.90;8.87;;;12.40;99.90;;;;;;5132119;27;20442;-68
2021/09/24 02:34:25;;;;;;;12.13;9.37;;;12.40;99.90;;;;;;5132548;27;20449;-68
2021/09/24 02:36:52;;;;;;;9.17;7.90;;;12.40;99.90;;;;;;5132929;27;20508;-68
2021/09/24 02:39:19;;;;;;;12.30;8.83;;;12.40;99.90;;;;;;5133038;27;20459;-68
2021/09/24 02:41:46;;;;;;;11.13;8.17;;;12.30;99.90;;;;;;5131521;27;20460;-68
2021/09/24 02:44:13;;;;;;;9.53;8.53;;;12.30;99.90;;;;;;5132334;27;20452;-68
2021/09/24 02:46:40;;;;;;;9.87;8.60;;;12.20;99.90;;;;;;5132637;27;20500;-68
2021/09/24 02:49:09;;;;;;;10.50;8.80;;;12.20;99.90;;;;;;5132454;27;20451;-68
2021/09/24 02:51:35;;;;;;;14.00;7.70;;;12.10;99.90;;;;;;5131605;27;20960;-67
2021/09/24 02:54:02;;;;;;;8.70;7.80;;;12.10;99.90;;;;;;5132381;27;20847;-68
2021/09/24 02:56:31;;;;;;;10.00;6.80;;;12.00;99.90;;;;;;5132133;27;20511;-68
2021/09/24 02:58:58;;;;;;;8.80;6.97;;;11.80;99.90;;;;;;5132696;27;20463;-68
2021/09/24 03:01:25;;;;;;;10.93;7.63;;;11.70;99.90;;;;;;5131804;27;20818;-68
2021/09/24 03:03:51;;;;;;;11.13;7.93;;;11.60;99.90;;;;;;5132355;27;20440;-68
2021/09/24 03:06:20;;;;;;;9.20;7.60;;;11.50;99.90;;;;;;5132733;27;20461;-68
2021/09/24 03:08:46;;;;;;;10.63;8.57;;;11.40;99.90;;;;;;5132578;27;20443;-67
2021/09/24 03:11:13;;;;;;;10.83;8.43;;;11.40;99.90;;;;;;5132370;27;20437;-68
2021/09/24 03:13:40;;;;;;;12.20;8.10;;;11.40;99.90;;;;;;5130615;27;20864;-68
2021/09/24 03:16:07;;;;;;;10.90;7.60;;;11.30;99.90;;;;;;5132384;27;20483;-68
2021/09/24 03:18:34;;;;;;;10.90;8.07;;;11.30;99.90;;;;;;5132353;27;20523;-68
2021/09/24 03:21:01;;;;;;;9.47;8.47;;;11.10;99.90;;;;;;5132801;27;20807;-68
2021/09/24 03:23:29;;;;;;;10.47;9.20;;;11.00;99.90;;;;;;5131023;27;20995;-68
2021/09/24 03:25:56;;;;;;;11.37;9.07;;;10.90;99.90;;;;;;5132334;27;20970;-68
2021/09/24 03:28:23;;;;;;;9.53;8.53;;;10.70;99.90;;;;;;5132296;27;20525;-68
2021/09/24 03:30:50;;;;;;;9.43;7.60;;;10.60;99.90;;;;;;5132121;27;20445;-68
2021/09/24 03:33:17;;;;;;;11.20;8.47;;;10.60;99.90;;;;;;5131017;27;20839;-68
2021/09/24 03:35:44;;;;;;;10.23;8.63;;;10.50;99.90;;;;;;5132072;27;20460;-68
2021/09/24 03:38:11;;;;;;;9.40;8.43;;;10.60;99.90;;;;;;5131948;27;20482;-68
2021/09/24 03:40:40;;;;;;;10.83;8.93;;;10.50;99.90;;;;;;5131216;27;21009;-68
2021/09/24 03:43:07;;;;;;;14.33;8.70;;;10.60;99.90;;;;;;5130624;27;20452;-69
2021/09/24 03:45:34;;;;;;;11.13;8.83;;;10.50;99.90;;;;;;5131272;27;20535;-68
2021/09/24 03:48:01;;;;;;;9.33;7.90;;;10.50;99.90;;;;;;5131915;27;20458;-68
2021/09/24 03:50:28;;;;;;;10.20;8.43;;;10.50;99.90;;;;;;5131642;27;20454;-68
2021/09/24 03:52:56;;;;;;;12.03;10.03;;;10.50;99.90;;;;;;5130500;27;20467;-68
2021/09/24 03:55:22;;;;;;;13.30;9.70;;;10.50;99.90;;;;;;5131257;27;20448;-68
2021/09/24 03:57:51;;;;;;;16.07;9.70;;;10.60;99.90;;;;;;5131181;27;20579;-68
2021/09/24 04:00:18;;;;;;;12.47;9.80;;;10.80;99.90;;;;;;5131504;27;21001;-68
2021/09/24 04:02:44;;;;;;;14.67;10.20;;;10.80;99.90;;;;;;5130362;27;20439;-68
2021/09/24 04:05:12;;;;;;;11.77;10.53;;;10.80;99.90;;;;;;5131679;27;20444;-73
2021/09/24 04:07:39;;;;;;;11.87;9.60;;;10.90;99.90;;;;;;5131113;27;21048;-67
2021/09/24 04:10:07;;;;;;;12.00;9.80;;;10.90;99.90;;;;;;5131063;27;20441;-68
2021/09/24 04:12:34;;;;;;;10.90;8.83;;;10.90;99.90;;;;;;5130263;27;20459;-69
2021/09/24 04:15:02;;;;;;;13.23;8.73;;;11.00;99.90;;;;;;5131175;27;20448;-68
2021/09/24 04:17:29;;;;;;;13.27;9.40;;;11.00;99.90;;;;;;5130894;27;21054;-69
2021/09/24 04:19:56;;;;;;;10.93;7.90;;;11.10;99.90;;;;;;5131255;27;20441;-69
2021/09/24 04:22:23;;;;;;;12.80;9.00;;;11.10;99.90;;;;;;5130297;27;20535;-69
2021/09/24 04:24:50;;;;;;;11.50;8.60;;;11.00;99.90;;;;;;5131727;27;20440;-70
2021/09/24 04:27:17;;;;;;;14.73;9.60;;;11.10;99.90;;;;;;5132106;27;20456;-69
2021/09/24 04:29:44;;;;;;;10.40;8.57;;;11.10;99.90;;;;;;5132090;27;20440;-69
2021/09/24 04:32:12;;;;;;;11.37;8.80;;;11.20;99.90;;;;;;5131030;27;20450;-68
2021/09/24 04:34:39;;;;;;;10.83;8.70;;;11.30;99.90;;;;;;5131347;27;20954;-69
2021/09/24 04:37:06;;;;;;;13.63;8.90;;;11.40;99.90;;;;;;5131289;27;20571;-68
2021/09/24 04:39:33;;;;;;;11.80;9.50;;;11.50;99.90;;;;;;5131407;27;21009;-69
2021/09/24 04:42:00;;;;;;;14.10;9.27;;;11.60;99.90;;;;;;5131105;27;21102;-71
2021/09/24 04:44:27;;;;;;;12.63;8.87;;;11.70;99.90;;;;;;5130970;27;20463;-71
2021/09/24 04:46:54;;;;;;;10.70;8.50;;;11.70;99.90;;;;;;5131736;27;20996;-70
2021/09/24 04:49:22;;;;;;;10.30;8.87;;;11.70;99.90;;;;;;5131621;27;20895;-69
2021/09/24 04:51:49;;;;;;;13.60;9.47;;;11.70;99.90;;;;;;5131602;27;20448;-71
2021/09/24 04:54:17;;;;;;;12.50;9.00;;;11.70;99.90;;;;;;5136457;27;20495;-69
2021/09/24 04:56:44;;;;;;;11.00;9.27;;;11.70;99.90;;;;;;5136175;27;21151;-71
2021/09/24 04:59:11;;;;;;;15.80;10.80;;;11.70;99.90;;;;;;5139760;27;20502;-71
2021/09/24 05:01:38;;;;;;;12.10;9.00;;;11.60;99.90;;;;;;5135338;27;20527;-70
2021/09/24 05:04:05;;;;;;;12.17;9.80;;;11.60;99.90;;;;;;5134006;27;20527;-69
2021/09/24 05:06:34;;;;;;;14.30;9.50;;;11.60;99.90;;;;;;5126271;27;21072;-70
2021/09/24 05:09:01;;;;;;;11.93;8.40;;;11.60;99.90;;;;;;5131664;27;20497;-70
2021/09/24 05:11:28;;;;;;;10.10;8.40;;;11.50;99.90;;;;;;5132350;27;20450;-70
2021/09/24 05:13:55;;;;;;;10.80;8.70;;;11.50;99.90;;;;;;5131865;27;20536;-69
2021/09/24 05:16:22;;;;;;;14.97;9.80;;;11.40;99.90;;;;;;5132551;27;20499;-67
2021/09/24 05:18:49;;;;;;;11.80;9.80;;;11.30;99.90;;;;;;5132709;27;20475;-69
2021/09/24 05:21:15;;;;;;;11.53;8.83;;;11.30;99.90;;;;;;5132878;27;20560;-69
2021/09/24 05:23:44;;;;;;;14.47;9.50;;;11.20;99.90;;;;;;5131868;27;20934;-69
2021/09/24 05:26:11;;;;;;;15.83;10.60;;;11.10;99.90;;;;;;5133176;27;20575;-68
2021/09/24 05:28:38;;;;;;;11.50;9.37;;;11.00;99.90;;;;;;5134192;27;20476;-69
2021/09/24 05:31:05;;;;;;;13.73;9.50;;;10.90;99.90;;;;;;5133994;27;20514;-69
2021/09/24 05:33:33;;;;;;;13.03;10.23;;;10.90;99.90;;;;;;5132416;27;20543;-67
2021/09/24 05:36:00;;;;;;;14.70;9.97;;;10.80;99.90;;;;;;5133827;27;20474;-69
2021/09/24 05:38:27;;;;;;;15.50;9.60;;;10.80;99.90;;;;;;5133706;27;20502;-67
2021/09/24 05:40:55;;;;;;;18.20;10.10;;;10.80;99.90;;;;;;5133674;27;20471;-67
2021/09/24 05:43:22;;;;;;;16.37;10.47;;;10.80;99.90;;;;;;5132354;27;20486;-67
2021/09/24 05:45:49;;;;;;;12.40;9.23;;;10.70;99.90;;;;;;5133983;27;20583;-68
2021/09/24 05:48:16;;;;;;;15.70;9.80;;;10.80;99.90;;;;;;5133622;27;20480;-68
2021/09/24 05:50:43;;;;;;;11.70;8.90;;;10.70;99.90;;;;;;5133789;27;20538;-67
2021/09/24 05:53:10;;;;;;;14.07;9.70;;;10.80;99.90;;;;;;5132594;27;20476;-68
2021/09/24 05:55:38;;;;;;;14.30;10.20;;;10.80;99.90;;;;;;5133475;27;20501;-68
2021/09/24 05:58:06;;;;;;;15.80;11.50;;;10.80;99.90;;;;;;5133450;27;20519;-68
2021/09/24 06:00:33;;;;;;;12.30;9.67;;;10.80;99.90;;;;;;5133543;27;20444;-68
2021/09/24 06:03:00;;;;;;;21.10;10.30;;;10.90;99.90;;;;;;5132234;27;20440;-68
2021/09/24 06:05:27;;;;;;;14.80;12.00;;;10.90;99.90;;;;;;5133639;27;20436;-68
2021/09/24 06:07:54;;;;;;;11.67;9.10;;;10.90;99.90;;;;;;5134419;27;20464;-69
2021/09/24 06:10:21;;;;;;;18.93;10.10;;;11.00;99.90;;;;;;5133594;27;20452;-69
2021/09/24 06:12:49;;;;;;;15.67;10.23;;;11.10;99.90;;;;;;5132681;27;20531;-69
2021/09/24 06:15:18;;;;;;;13.60;10.43;;;11.10;99.90;;;;;;5133845;27;20449;-68
2021/09/24 06:17:45;;;;;;;14.00;10.67;;;11.20;99.90;;;;;;5133393;27;21016;-69
2021/09/24 06:20:13;;;;;;;13.80;10.80;;;11.30;99.90;;;;;;5133312;27;20440;-69
2021/09/24 06:22:41;;;;;;;12.80;11.00;;;11.30;99.90;;;;;;5132008;27;20497;-70
2021/09/24 06:25:09;;;;;;;13.37;10.23;;;11.40;99.90;;;;;;5132965;27;20454;-70
2021/09/24 06:27:37;;;;;;;16.10;12.53;;;11.50;99.90;;;;;;5132648;27;20989;-68
2021/09/24 06:30:06;;;;;;;12.70;10.30;;;11.50;99.90;;;;;;5132816;27;20452;-68
2021/09/24 06:32:35;;;;;;;16.47;11.50;;;11.60;99.90;;;;;;5132115;27;20531;-68
2021/09/24 06:35:02;;;;;;;13.50;10.80;;;11.70;99.90;;;;;;5132417;27;20437;-68
2021/09/24 06:37:29;;;;;;;14.87;10.37;;;11.80;99.90;;;;;;5132448;27;20472;-68
2021/09/24 06:39:55;;;;;;;13.20;10.50;;;11.90;99.90;;;;;;5126716;27;20460;-69
2021/09/24 06:42:22;;;;;;;13.30;10.50;;;11.90;99.90;;;;;;5128142;27;20463;-68
2021/09/24 06:44:50;;;;;;;16.33;10.20;;;12.10;99.90;;;;;;5131216;27;20517;-68
2021/09/24 06:47:18;;;;;;;14.07;10.63;;;12.30;99.90;;;;;;5131599;27;20556;-68
2021/09/24 06:49:46;;;;;;;15.10;11.20;;;12.40;99.90;;;;;;5131313;27;20453;-68
2021/09/24 06:52:13;;;;;;;17.30;10.00;;;12.40;99.90;;;;;;5130442;27;20527;-68
2021/09/24 06:54:40;;;;;;;11.97;10.53;;;12.50;99.90;;;;;;5130825;27;20444;-67
2021/09/24 06:57:07;;;;;;;16.33;10.90;;;12.60;99.90;;;;;;5131877;27;20464;-67
2021/09/24 06:59:34;;;;;;;12.30;10.20;;;12.70;99.90;;;;;;5132190;27;20447;-66
2021/09/24 07:02:01;;;;;;;18.60;11.83;;;12.90;99.90;;;;;;5131072;27;20455;-67
2021/09/24 07:04:28;;;;;;;12.53;10.43;;;13.00;99.90;;;;;;5131093;27;20826;-68
2021/09/24 07:06:56;;;;;;;14.47;10.00;;;13.20;99.90;;;;;;5131115;27;20492;-67
2021/09/24 07:09:23;;;;;;;15.70;10.43;;;13.40;99.90;;;;;;5132063;27;20443;-67
2021/09/24 07:11:51;;;;;;;11.87;10.67;;;13.40;99.90;;;;;;5130940;27;21183;-67
2021/09/24 07:14:18;;;;;;;15.20;11.40;;;13.60;99.90;;;;;;5131076;27;20930;-68
2021/09/24 07:16:46;;;;;;;14.43;10.30;;;13.90;99.90;;;;;;5131732;27;20464;-67
2021/09/24 07:19:13;;;;;;;13.93;10.90;;;14.10;99.90;;;;;;5131946;27;21196;-67
2021/09/24 07:21:41;;;;;;;16.97;10.97;;;14.30;99.90;;;;;;5131120;27;21033;-67
2021/09/24 07:24:10;;;;;;;16.10;10.87;;;14.50;99.90;;;;;;5131453;27;20458;-67
2021/09/24 07:26:37;;;;;;;15.47;10.80;;;14.70;99.90;;;;;;5131682;27;21045;-68
2021/09/24 07:29:04;;;;;;;15.97;11.40;;;14.80;99.90;;;;;;5131977;27;20444;-67
2021/09/24 07:31:32;;;;;;;11.50;9.60;;;15.00;99.90;;;;;;5131108;27;20527;-68
2021/09/24 07:33:59;;;;;;;12.63;8.80;;;15.10;99.90;;;;;;5131365;27;20451;-67
2021/09/24 07:36:26;;;;;;;15.47;10.23;;;15.30;99.90;;;;;;5131564;27;20540;-68
2021/09/24 07:38:53;;;;;;;16.07;9.40;;;15.40;99.90;;;;;;5131451;27;20951;-67
2021/09/24 07:41:22;;;;;;;18.97;10.83;;;15.50;99.90;;;;;;5130957;27;20449;-67
2021/09/24 07:43:51;;;;;;;12.40;9.70;;;15.50;99.90;;;;;;5130794;27;20451;-67
2021/09/24 07:46:19;;;;;;;12.40;9.30;;;15.60;99.90;;;;;;5131359;27;20476;-68
2021/09/24 07:48:46;;;;;;;14.60;9.43;;;15.70;99.90;;;;;;5131469;27;20443;-67
2021/09/24 07:51:14;;;;;;;14.53;10.60;;;15.90;99.90;;;;;;5131293;27;20527;-67
2021/09/24 07:53:41;;;;;;;12.43;11.00;;;16.00;99.90;;;;;;5130282;27;20480;-67
2021/09/24 07:56:09;;;;;;;17.07;11.07;;;16.10;99.90;;;;;;5131206;27;20475;-68
2021/09/24 07:58:39;;;;;;;11.97;10.60;;;16.10;99.90;;;;;;5131206;27;20562;-68
2021/09/24 08:01:06;;;;;;;12.90;10.25;;;16.20;99.90;;;;;;5131116;27;20392;-68
2021/09/24 08:03:33;;;;;;;17.60;11.20;;;16.30;99.90;;;;;;5130261;27;20203;-67
2021/09/24 08:06:00;;;;;;;16.50;10.50;;;16.20;99.90;;;;;;5131671;27;20462;-67
2021/09/24 08:08:27;;;;;;;12.20;9.80;;;16.10;99.90;;;;;;5131742;27;20442;-67
2021/09/24 08:10:55;;;;;;;11.93;9.23;;;16.20;99.90;;;;;;5131367;27;20444;-67
2021/09/24 08:13:24;;;;;;;10.93;9.70;;;16.40;99.90;;;;;;5129677;27;20669;-67
2021/09/24 08:15:52;;;;;;;11.90;9.13;;;16.90;99.90;;;;;;5131140;27;20586;-68
2021/09/24 08:18:20;;;;;;;12.13;10.27;;;17.40;99.90;;;;;;5131277;27;21011;-68
2021/09/24 08:20:48;;;;;;;10.37;9.27;;;17.70;99.90;;;;;;5131566;27;20517;-67
2021/09/24 08:23:15;;;;;;;11.60;9.20;;;18.10;99.90;;;;;;5131131;27;20536;-68
2021/09/24 08:25:42;;;;;;;11.13;9.17;;;18.50;99.90;;;;;;5131617;27;21074;-68
2021/09/24 08:28:09;;;;;;;11.00;8.60;;;18.90;99.90;;;;;;5131217;27;20444;-68
2021/09/24 08:30:37;;;;;;;15.10;8.93;;;19.10;99.90;;;;;;5132764;27;20913;-68
2021/09/24 08:33:05;;;;;;;13.43;9.13;;;19.60;99.90;;;;;;5130097;27;20535;-68
2021/09/24 08:35:33;;;;;;;10.97;9.30;;;19.50;99.90;;;;;;5131719;27;20454;-67
2021/09/24 08:38:00;;;;;;;11.50;9.37;;;19.50;99.90;;;;;;5131122;27;20502;-68
2021/09/24 08:40:30;;;;;;;12.00;9.00;;;19.80;99.90;;;;;;5130896;27;20454;-67
2021/09/24 08:42:57;;;;;;;9.77;7.57;;;19.90;99.90;;;;;;5129822;27;20476;-68
2021/09/24 08:45:27;;;;;;;10.57;7.60;;;20.10;99.90;;;;;;5130980;27;21260;-68
2021/09/24 08:47:55;;;;;;;9.00;6.97;;;20.10;99.90;;;;;;5130832;27;21009;-68
2021/09/24 08:50:24;;;;;;;9.97;7.53;;;20.10;99.90;;;;;;5130793;27;20446;-68
2021/09/24 08:52:52;;;;;;;10.57;8.10;;;19.90;99.90;;;;;;5129620;27;20441;-68
2021/09/24 08:55:20;;;;;;;8.70;7.80;;;19.80;99.90;;;;;;5130501;27;20543;-68
2021/09/24 08:57:48;;;;;;;9.93;7.53;;;19.70;99.90;;;;;;5130459;27;20989;-68
2021/09/24 09:00:16;;;;;;;10.10;9.10;;;19.80;99.90;;;;;;5130787;27;20448;-68
2021/09/24 09:02:55;;;;;;;8.90;7.97;;;20.00;99.90;;;;;;5129660;27;20466;-67
2021/09/24 09:05:27;;;;;;;7.97;6.20;;;20.40;99.90;;;;;;5130564;27;20535;-68
2021/09/24 09:08:11;;;;;;;7.43;6.10;;;20.60;99.90;;;;;;5130161;27;20543;-67
2021/09/24 09:10:42;;;;;;;9.87;6.53;;;20.70;99.90;;;;;;5130562;27;20433;-68
2021/09/24 09:13:10;;;;;;;10.30;8.17;;;20.80;99.90;;;;;;5129636;27;20451;-67
2021/09/24 09:15:38;;;;;;;11.93;8.77;;;20.80;99.90;;;;;;5130169;27;21146;-67
2021/09/24 09:18:05;;;;;;;10.03;8.90;;;21.00;99.90;;;;;;5130508;27;20508;-68
2021/09/24 09:20:34;;;;;;;7.90;7.10;;;21.30;99.90;;;;;;5130376;27;20532;-68
2021/09/24 09:23:10;;;;;;;8.43;7.00;;;21.60;99.90;;;;;;5129568;27;20484;-68
2021/09/24 09:25:40;;;;;;;8.30;6.90;;;22.10;99.90;;;;;;5130387;27;20440;-68
2021/09/24 09:28:10;;;;;;;8.67;7.03;;;22.50;99.90;;;;;;5130448;27;20449;-68
2021/09/24 09:30:38;;;;;;;10.87;7.40;;;22.90;99.90;;;;;;5130671;27;20447;-68
2021/09/24 09:33:08;;;;;;;8.60;6.67;;;22.90;99.90;;;;;;5129304;27;20534;-68
2021/09/24 09:35:39;;;;;;;9.87;7.53;;;22.70;99.90;;;;;;5130179;27;20449;-68
2021/09/24 09:38:16;;;;;;;9.23;7.23;;;22.50;99.90;;;;;;5130952;27;20483;-68
2021/09/24 09:40:43;;;;;;;9.20;7.20;;;22.50;99.90;;;;;;5133962;27;20534;-68
2021/09/24 09:43:10;;;;;;;7.17;5.87;;;22.30;99.90;;;;;;5132781;27;20998;-68
2021/09/24 09:45:38;;;;;;;8.40;6.37;;;22.00;99.90;;;;;;5133577;27;20527;-68
2021/09/24 09:48:13;;;;;;;7.40;6.30;;;22.20;99.90;;;;;;5133636;27;20847;-68
2021/09/24 09:50:41;;;;;;;8.33;7.40;;;22.50;99.90;;;;;;5133968;27;20492;-68
2021/09/24 09:53:10;;;;;;;6.97;6.00;;;22.70;99.90;;;;;;5132600;27;20573;-68
2021/09/24 09:55:39;;;;;;;10.20;7.20;;;22.80;99.90;;;;;;5133398;27;20520;-68
2021/09/24 09:58:08;;;;;;;7.60;6.80;;;22.70;99.90;;;;;;5133130;27;20555;-68
2021/09/24 10:00:36;;;;;;;8.00;6.50;;;22.80;99.90;;;;;;5133506;27;20450;-68
2021/09/24 10:03:06;;;;;;;8.77;6.80;;;23.20;99.90;;;;;;5132202;27;20436;-68
2021/09/24 10:05:35;;;;;;;9.57;6.70;;;23.60;99.90;;;;;;5133517;27;20448;-68
2021/09/24 10:08:22;;;;;;;9.43;8.43;;;23.70;99.90;;;;;;5133092;27;20805;-68
2021/09/24 10:11:04;;;;;;;9.20;7.23;;;23.60;99.90;;;;;;5133036;27;20444;-68
2021/09/24 10:13:34;;;;;;;9.43;8.43;;;23.40;99.90;;;;;;5132224;27;20440;-68
2021/09/24 10:16:02;;;;;;;8.00;7.20;;;23.40;99.90;;;;;;5133067;27;20456;-68
2021/09/24 10:18:30;;;;;;;8.20;7.10;;;23.30;99.90;;;;;;5132826;27;20571;-68
2021/09/24 10:20:57;;;;;;;7.80;7.10;;;23.80;99.90;;;;;;5132799;27;20447;-68
2021/09/24 10:23:26;;;;;;;7.80;6.57;;;24.40;99.90;;;;;;5131711;27;20444;-68
2021/09/24 10:25:59;;;;;;;9.63;7.33;;;25.20;99.90;;;;;;5132852;27;20464;-69
2021/09/24 10:28:31;;;;;;;6.90;5.43;;;25.80;98.90;;;;;;5132849;27;20543;-68
2021/09/24 10:30:59;;;;;;;7.97;5.77;;;26.60;97.70;;;;;;5132657;27;20440;-68
2021/09/24 10:33:50;;;;;;;7.40;4.80;;;27.30;98.10;;;;;;5131700;27;20442;-65
2021/09/24 10:36:53;;;;;;;5.40;4.67;;;27.90;95.70;;;;;;5132398;27;20463;-66
2021/09/24 10:39:42;;;;;;;6.43;4.60;;;27.40;93.70;;;;;;5132455;27;20873;-68
2021/09/24 10:42:23;;;;;;;7.53;5.10;;;27.30;93.90;;;;;;5131664;27;20462;-68
2021/09/24 10:45:18;;;;;;;6.20;4.23;;;26.60;93.70;;;;;;5132185;27;20443;-68
2021/09/24 10:47:51;;;;;;;5.57;4.93;;;27.10;94.30;;;;;;5132319;27;20464;-68
2021/09/24 10:51:01;;;;;;;4.77;3.60;;;27.50;92.90;;;;;;5131172;27;20444;-68
2021/09/24 10:53:41;;;;;;;6.00;4.47;;;27.90;93.20;;;;;;5131198;27;20941;-68
2021/09/24 10:56:29;;;;;;;5.10;3.60;;;28.00;93.40;;;;;;5132278;27;20471;-68
2021/09/24 10:58:57;;;;;;;5.53;4.00;;;28.20;91.60;;;;;;5132350;27;20476;-69
2021/09/24 11:01:39;;;;;;;5.60;3.73;;;28.60;91.40;;;;;;5131738;27;20444;-69
2021/09/24 11:04:14;;;;;;;4.60;4.00;;;29.30;90.30;;;;;;5131929;27;20527;-68
2021/09/24 11:06:44;;;;;;;7.03;4.57;;;29.60;88.30;;;;;;5131940;27;20502;-68
2021/09/24 11:09:13;;;;;;;5.67;4.40;;;28.90;89.30;;;;;;5132114;27;20445;-69
2021/09/24 11:11:43;;;;;;;5.07;4.47;;;28.90;89.10;;;;;;5131628;27;20452;-69
2021/09/24 11:14:30;;;;;;;7.30;4.37;;;29.30;88.70;;;;;;5132026;27;20455;-68
2021/09/24 11:16:59;;;;;;;6.10;3.90;;;28.50;87.70;;;;;;5132058;27;20460;-68
2021/09/24 11:19:32;;;;;;;4.87;4.00;;;28.20;90.20;;;;;;5131908;27;20494;-69
2021/09/24 11:22:12;;;;;;;5.90;3.80;;;28.60;87.20;;;;;;5131352;27;20440;-69
2021/09/24 11:24:42;;;;;;;4.23;3.77;;;29.50;87.60;;;;;;5131555;27;20543;-68
2021/09/24 11:27:13;;;;;;;4.97;4.10;;;30.60;83.70;;;;;;5131861;27;20468;-69
2021/09/24 11:30:10;;;;;;;4.50;3.60;;;30.70;82.50;;;;;;5131786;27;20444;-68
2021/09/24 11:32:39;;;;;;;5.10;3.50;;;30.40;80.40;;;;;;5130890;27;20436;-68
2021/09/24 11:35:08;;;;;;;4.67;3.70;;;30.80;80.00;;;;;;5131466;27;20447;-69
2021/09/24 11:37:37;;;;;;;4.20;3.30;;;31.10;78.10;;;;;;5131460;27;20551;-69
2021/09/24 11:40:06;;;;;;;4.07;3.50;;;31.40;80.10;;;;;;5131331;27;20480;-69
2021/09/24 11:42:37;;;;;;;5.60;3.80;;;32.00;76.60;;;;;;5130413;27;20448;-69
2021/09/24 11:45:06;;;;;;;4.20;3.23;;;31.60;75.30;;;;;;5130941;27;21226;-68
2021/09/24 11:47:36;;;;;;;5.60;3.30;;;31.40;76.60;;;;;;5131124;27;20914;-68
2021/09/24 11:50:05;;;;;;;5.10;3.20;;;32.00;73.40;;;;;;5122266;27;20467;-69
2021/09/24 11:52:39;;;;;;;6.30;3.40;;;32.90;74.30;;;;;;5127483;27;20448;-69
2021/09/24 11:55:11;;;;;;;4.87;3.70;;;32.60;67.70;;;;;;5128561;27;20440;-68
2021/09/24 11:57:40;;;;;;;5.23;3.07;;;32.10;74.80;;;;;;5129046;27;20926;-69
2021/09/24 12:00:08;;;;;;;3.97;3.50;;;32.60;69.10;;;;;;5128603;27;20993;-68
2021/09/24 12:02:35;;;;;;;4.20;3.30;;;32.90;70.50;;;;;;5128027;27;20447;-68
2021/09/24 12:05:04;;;;;;;6.77;3.93;;;33.50;69.30;;;;;;5128247;27;20440;-68
2021/09/24 12:07:31;;;;;;;3.80;3.40;;;34.00;68.00;;;;;;5128787;27;20552;-68
2021/09/24 12:10:00;;;;;;;5.63;3.23;;;33.80;63.30;;;;;;5128591;27;20440;-68
2021/09/24 12:12:27;;;;;;;4.40;3.70;;;34.30;62.70;;;;;;5128217;27;20452;-69
2021/09/24 12:14:56;;;;;;;4.07;3.00;;;35.00;61.50;;;;;;5128181;27;21196;-69
2021/09/24 12:17:25;;;;;;;5.20;4.20;;;35.20;60.70;;;;;;5128693;27;20470;-69
2021/09/24 12:19:52;;;;;;;6.20;3.73;;;33.80;60.50;;;;;;5129354;27;20476;-69
2021/09/24 12:22:19;;;;;;;4.30;3.10;;;33.30;61.50;;;;;;5136527;27;20454;-70
2021/09/24 12:24:47;;;;;;;5.47;2.90;;;33.10;62.50;;;;;;5150905;27;20504;-69
2021/09/24 12:27:19;;;;;;;3.77;3.33;;;32.30;64.00;;;;;;5143779;27;20472;-69
2021/09/24 12:29:48;;;;;;;5.90;3.37;;;32.80;65.30;;;;;;5129579;27;20826;-70
2021/09/24 12:32:18;;;;;;;3.70;3.03;;;33.10;59.90;;;;;;5129679;27;20479;-71
2021/09/24 12:34:47;;;;;;;3.73;2.80;;;33.50;60.80;;;;;;5127725;27;20527;-70
2021/09/24 12:37:16;;;;;;;4.10;3.30;;;33.80;60.40;;;;;;5128962;27;20460;-69
2021/09/24 12:39:54;;;;;;;3.97;3.20;;;33.90;59.40;;;;;;5127923;27;20555;-69
2021/09/24 12:42:21;;;;;;;3.93;3.23;;;35.00;58.50;;;;;;5123234;27;20552;-69
2021/09/24 12:44:52;;;;;;;4.33;3.43;;;35.90;57.30;;;;;;5128377;27;20441;-69
2021/09/24 12:47:27;;;;;;;4.80;2.57;;;34.90;57.80;;;;;;5128259;27;20475;-70